ACT        NSW        VIC        QLD        SA        WA        TAS        NT        INFO        CALC            by VK5ZD

  Atmospheric Gas Attenuation - ITU Rec 676-11   --------------- db/100km ---------------
SA Stations Date Time Temp RH % AH g/m3 Dew Point Wind Direction Speed kph Gust kph Barometer mB Rainfall Since 9am 24GHz 47GHz 76GHz 122GHz 134GHz 241GHz
Adelaide (West Terrace / Ngayirdapira) 11 21:20 11.7 71 7.43 6.6 6 6 1025.6 0 17.2 25.1 36.7 95.9 86.4 296.2
Adelaide Airport 11 21:20 12.1 73 7.83 7.5 0 4 1025.7 0 18.0 25.6 38.1 99.7 91.3 313.2
Andamooka 11 09:00 16.4 56 7.82 7.7 19 1013.1 0 17.8 23.9 35.5 93.1 85.4 293.2
Cape Borda 11 21:20 10.2 91 8.66 8.8 11 13 1025.8 0 19.9 27.6 42.5 111.4 105.0 361.0
Cape Jaffa 11 21:20 11.3 69 7.04 5.8 15 19 1013.1 0.2 16.4 24.1 34.8 91.0 80.9 276.9
Cape Willoughby 11 21:20 15.3 58 7.57 7.1 19 20 1013.1 0 17.3 23.9 35.1 91.9 83.4 286.3
Ceduna 11 21:20 15.1 72 9.29 10.1 15 19 1023.2 0 21.0 27.0 42.4 111.2 106.7 367.6
Clare 11 21:20 9.7 62 5.72 2.8 6 7 1024.4 0.2 13.6 22.9 30.8 80.2 66.3 225.4
Cleve 11 09:00 14.7 66 8.31 8.4 28 1024.9 0.4 18.9 25.6 38.7 101.4 94.4 324.5
Cleve Airport 11 21:20 13.6 59 6.94 5.7 6 6 1024.4 0 16.1 23.7 33.9 88.5 78.1 267.2
Coober Pedy Airport 11 21:20 16.6 45 6.36 4.6 13 15 1021.7 0 14.7 22.0 30.5 79.4 68.1 232.6
Coonawarra 11 21:20 11.2 82 8.31 8.3 9 11 1025.1 0.2 19.1 26.6 40.5 106.0 98.8 339.4
Cultana (Defence) 11 21:20 15.1 61 7.87 7.6 20 24 1013.1 0 18.0 24.4 36.3 95.1 87.4 300.2
Cummins Airport 11 21:20 9.9 76 7.1 5.9 9 9 1025.2 0 16.5 25.0 36.2 94.5 84.0 287.5
Edinburgh 11 21:20 13.8 57 6.79 5.4 7 9 1025.7 0 15.7 23.5 33.3 86.9 76.1 260.2
Edithburgh 11 21:20 15.3 61 7.97 8 15 17 1013.1 0 18.2 24.5 36.6 95.9 88.5 303.9
Ernabella/Pukatja 11 21:20 15.3 46 6.01 3.8 13 15 1019 0 14.0 21.7 29.6 77.1 64.9 221.2
Eudunda 11 09:00 13 56 6.35 4.4 33 1023.2 0.6 14.8 23.0 31.8 83.1 71.2 243.1
Gluepot 11 09:00 15.5 49 6.48 4.9 15 1013.1 0 15.0 22.2 31.0 80.9 70.0 239.0
Hindmarsh Island 11 21:20 14.7 66 8.31 8.4 20 22 1025.2 0 18.9 25.6 38.7 101.4 94.4 324.6
Kadina 11 21:20 12.9 68 7.66 7.1 15 17 1024.9 0 17.6 25.1 37.0 96.8 88.1 302.0
Karoonda 11 09:00 15.4 46 6.04 4 13 1013.1 0.6 14.1 21.6 29.4 76.8 64.9 221.1
Keith 11 09:00 14.1 80 9.71 10.7 19 1022.6 0.8 21.9 28.0 44.6 117.2 113.8 392.2
Keith West 11 21:20 10 67 6.3 4.1 9 9 1013.1 0 14.8 23.3 32.5 84.8 72.7 248.0
Kingscote 11 21:20 7.7 75 6.08 3.6 0 0 1025.8 0 14.5 24.0 33.0 86.1 72.8 247.9
Kuitpo 11 21:20 9.7 82 7.56 6.8 7 9 1023.8 0 17.5 25.8 38.1 99.6 90.3 309.5
Kyancutta 11 15:00 22.1 32 6.25 4.7 4 1022.7 0 14.3 20.7 28.2 73.4 62.5 213.5
Lameroo Aws 11 21:20 8.2 73 6.12 3.6 13 13 1013.1 0 14.5 23.5 32.5 84.8 72.1 245.5
Leigh Creek 11 21:20 16.1 38 5.21 1.8 9 9 1021.8 0 12.3 20.5 26.6 69.1 55.3 187.3
Loxton 11 21:20 12.3 55 5.97 3.5 11 13 1024.5 0 14.0 22.6 30.8 80.1 67.3 229.0
Marree Airport 11 21:20 15.7 39 5.22 1.8 9 11 1022.3 0 12.3 20.6 26.8 69.6 55.7 188.7
Minlaton Airport 11 21:20 13.5 68 7.95 7.7 15 15 1025.2 0 18.2 25.4 37.9 99.1 91.2 313.0
Minnipa Rs 11 21:20 13.9 49 5.87 3.4 19 22 1024 0 13.8 22.0 29.8 77.5 64.7 220.2
Moomba Airport 11 21:20 15.5 45 5.95 3.6 11 15 1021.2 0 13.9 21.7 29.4 76.5 64.2 218.6
Mount Crawford 11 21:20 8.3 76 6.41 4.3 15 15 1023.8 0 15.1 24.3 34.0 88.8 76.5 260.7
Mount Gambier 11 21:20 9.7 76 7.01 5.7 9 11 1024.9 0 16.4 24.9 35.9 93.7 83.0 284.0
Mount Lofty 11 21:20 7.6 86 6.93 5.4 4 9 1013.1 0 16.3 24.9 36.0 94.2 83.4 285.0
Murray Bridge 11 09:00 15.8 58 7.81 7.6 30 1013.1 0.5 17.8 24.1 35.8 93.7 85.9 294.9
Naracoorte 11 21:20 10.1 77 7.28 6.3 11 13 1024.9 0 16.9 25.2 36.8 96.2 86.2 295.1
Noarlunga 11 21:20 11.6 78 8.11 8 7 7 1013.1 0 18.6 25.7 38.9 102.0 94.6 325.0
Nullarbor 11 21:20 16 65 8.86 9.4 28 33 1021.8 0 20.0 26.0 40.1 105.2 99.7 343.3
Nuriootpa 11 21:20 9.1 76 6.75 5.1 7 7 1025.2 0 15.8 24.7 35.1 91.7 80.2 274.1
Oodnadatta 11 21:20 15.6 46 6.12 4 15 17 1021.2 0 14.2 21.9 29.9 78.0 66.1 225.4
Padthaway 11 21:20 10.1 74 7 5.7 6 7 1013.1 0 16.3 24.4 35.1 92.0 81.6 279.3
Pallamana 11 21:20 11.2 69 7 5.7 6 7 1025.5 0 16.3 24.5 35.2 91.9 81.4 278.3
Parafield 11 21:20 12.6 64 7.08 6 6 6 1025.6 0 16.4 24.3 34.9 91.1 81.0 277.1
Parawa West 11 21:20 10.6 78 7.61 6.9 9 11 1013.1 0 17.6 25.2 37.4 97.9 89.1 305.6
Parndana 11 21:20 9.1 70 6.21 3.9 4 4 1013.1 0 14.7 23.4 32.5 84.8 72.4 246.7
Point Avoid 11 21:20 11.1 76 7.66 7 11 13 1013.1 0 17.7 25.1 37.3 97.8 89.2 306.0
Port Augusta 11 21:20 16.2 56 7.72 7.4 26 30 1023.6 0 17.6 24.2 35.7 93.3 85.1 292.1
Port Lincoln Airport 11 21:20 15.6 64 8.51 8.8 20 24 1025.3 0 19.3 25.7 39.1 102.4 96.0 330.0
Port Pirie Airport Aws 11 21:20 10.1 62 5.86 3.2 15 15 1024 0 13.9 23.0 31.2 81.2 67.7 230.4
Renmark Airport 11 21:20 13.1 57 6.5 4.8 15 17 1024 0 15.1 23.2 32.4 84.5 73.1 249.4
Robe Airport 11 21:20 10 77 7.24 6.1 4 4 1013.1 0 16.8 24.8 36.1 94.7 84.9 290.7
Roseworthy 11 21:20 12.1 64 6.86 5.5 7 9 1025.2 0 15.9 24.0 34.2 89.4 78.6 268.8
Roxby Downs 11 21:20 14.1 47 5.7 3 7 7 1022.2 0 13.4 21.7 29.0 75.5 62.4 212.2
Snowtown 11 21:20 11.9 60 6.36 4.4 15 17 1025 0 14.9 23.3 32.4 84.5 72.5 247.2
Stenhouse Bay 11 21:20 14.3 53 6.51 4.8 17 20 1013.1 0 15.1 22.5 31.5 82.4 71.4 243.9
Strathalbyn 11 21:20 10.2 71 6.76 5.2 6 7 1025.4 0 15.8 24.4 34.7 90.5 79.3 270.8
Streaky Bay 11 09:00 16.8 28 4 -1.7 19 1031.7 0 9.8 19.1 22.7 58.6 42.0 140.5
Tarcoola 11 21:20 15.1 41 5.29 2 9 9 1022.8 0 12.5 20.9 27.3 70.8 56.9 193.0
Victor Harbor 11 09:00 16 50 6.81 5.6 24 1013.1 0.4 15.7 22.5 32.0 83.6 73.5 251.4
Whyalla 11 21:20 16 55 7.49 7 15 20 1024.2 0 17.1 23.9 34.9 91.3 82.5 282.9
Woomera 11 21:20 15.7 45 6.02 3.8 22 26 1023 0 14.0 21.8 29.6 77.1 64.9 221.3
Wudinna Airport 11 21:20 13.7 52 6.16 4 15 17 1024.2 0 14.4 22.5 30.9 80.6 68.4 233.0
Yunta 11 21:20 13 45 5.1 1.3 11 15 1013.1 0 12.2 20.8 26.9 70.1 55.7 188.6

Last Refresh: 11-Apr-2021 21:37:40

Bureau of Meteorology